Whitefield, NH (03598)

8:49 PM EST on December 02, 2016 (GMT -0500)
Mt. Well Seasoned | | Change Station

Elev 1211 ft 44.36 °N, 71.60 °W | Updated 6 seconds ago

Overcast
Overcast
32.2 °F
Feels Like 28 °F
N
4.0
Wind Variable Wind from South

Today
High -- | Low -- °F
--% Chance of Precip.
Yesterday
High -- | Low -- °F
Precip. -- in
Pressure 29.68 in
Visibility 10.0 miles
Clouds Mostly Cloudy 2200 ft
Mostly Cloudy 3300 ft
Overcast 9000 ft
Windchill 28 °F
Dew Point 30 °F
Humidity 95%
Rainfall 0.04 in
Snow Depth Not available.
7:04 AM 4:08 PM
Waxing Crescent, 11% visible
SPECI KHIE 030137Z AUTO 23005KT 10SM BKN022 BKN033 OVC090 01/M02 A2968 RMK AO2 SNE0055 P0000 T00111017
Pressure 29.68 in
Visibility 10.0 miles
Clouds Mostly Cloudy 2200 ft
Mostly Cloudy 3300 ft
Overcast 9000 ft
Windchill 28 °F
Dew Point 30 °F
Humidity 95%
Rainfall 0.04 in
Snow Depth Not available.
7:04 AM 4:08 PM
Waxing Crescent, 11% visible
SPECI KHIE 030137Z AUTO 23005KT 10SM BKN022 BKN033 OVC090 01/M02 A2968 RMK AO2 SNE0055 P0000 T00111017

10-Day Weather Forecast

Almanac

Astronomy

Dec. 02, 2016 Rise Set
Actual Time
Civil Twilight
Nautical Twilight
Astronomical Twilight
Moon
Length of Visible Light
Length of Day
Tomorrow will be .
, % of the Moon is Illuminated

Today's Extremes

State Highs State Lows

Community

WunderPhotos

Upload Photos

1,955,392 photos uploaded!

WunderBlog® & News

Nearby

Air Quality

  Air Quality AQ Index Pollutant
Not available.

Snow Depth

Station Depth Elevation

Earthquake Activity

City Distance Mag. Time & Date
Minimum magnitude displayed is 2.5.

Coastal Water Temperatures

Place Temperature

Stations

Nearby Weather Stations

Station Location Temp. Windchill Dew Point Humidity Wind Precip. Elev Updated Type
                   

Watches & Warnings

There are currently no watches in effect.